createdAt,value
2019-05-10T00:00:40.800Z,99424.27
2019-05-10T00:03:30.316Z,99423.89
2019-05-10T00:06:28.425Z,99426.97
2019-05-10T00:08:59.226Z,99425.16
2019-05-10T00:11:43.409Z,99423.66
2019-05-10T00:14:30.802Z,99425.22
2019-05-10T00:17:16.598Z,99425.39
2019-05-10T00:19:48.798Z,99421.81
2019-05-10T00:22:22.010Z,99415.23
2019-05-10T00:25:04.023Z,99421.19
2019-05-10T00:27:27.497Z,99416.75
2019-05-10T00:29:59.306Z,99422.38
2019-05-10T00:32:31.370Z,99418.06
2019-05-10T00:35:03.415Z,99416.05
2019-05-10T00:37:35.498Z,99415.84
2019-05-10T00:40:09.074Z,99416.67
2019-05-10T00:42:40.969Z,99416.80
2019-05-10T00:45:12.898Z,99418.49
2019-05-10T00:47:44.727Z,99416.89
2019-05-10T00:50:17.445Z,99424.00
2019-05-10T00:52:50.281Z,99417.58
2019-05-10T00:55:22.032Z,99424.61
2019-05-10T00:57:53.952Z,99425.31
2019-05-10T01:00:25.710Z,99420.55
2019-05-10T01:02:57.571Z,99421.25
2019-05-10T01:05:29.529Z,99418.73
2019-05-10T01:08:01.347Z,99419.23
2019-05-10T01:10:33.254Z,99415.53
2019-05-10T01:13:05.156Z,99416.97
2019-05-10T01:15:36.933Z,99414.59
2019-05-10T01:18:08.771Z,99417.83
2019-05-10T01:20:40.931Z,99415.56
2019-05-10T01:23:12.910Z,99415.97
2019-05-10T01:25:45.586Z,99418.02
2019-05-10T01:28:17.519Z,99420.52
2019-05-10T01:30:49.624Z,99430.09
2019-05-10T01:33:21.680Z,99425.17
2019-05-10T01:35:53.819Z,99433.05
2019-05-10T01:38:25.803Z,99428.77
2019-05-10T01:40:57.613Z,99425.29
2019-05-10T01:43:29.498Z,99426.27
2019-05-10T01:46:01.265Z,99429.84
2019-05-10T01:48:33.251Z,99427.83
2019-05-10T01:51:05.298Z,99433.32
2019-05-10T01:53:37.198Z,99438.13
2019-05-10T01:56:08.979Z,99430.94
2019-05-10T01:58:40.803Z,99430.59
2019-05-10T02:01:12.586Z,99441.34
2019-05-10T02:03:44.464Z,99436.70
2019-05-10T02:06:16.606Z,99439.82
2019-05-10T02:08:48.657Z,99435.63
2019-05-10T02:11:21.637Z,99436.58
2019-05-10T02:13:53.711Z,99437.55
2019-05-10T02:16:25.540Z,99437.89
2019-05-10T02:18:57.530Z,99447.58
2019-05-10T02:21:29.698Z,99441.01
2019-05-10T02:24:01.660Z,99438.50
2019-05-10T02:26:33.445Z,99446.75
2019-05-10T02:29:05.700Z,99447.70
2019-05-10T02:31:37.532Z,99449.38
2019-05-10T02:34:09.727Z,99444.13
2019-05-10T02:36:41.696Z,99448.30
2019-05-10T02:39:13.765Z,99446.62
2019-05-10T02:41:45.537Z,99449.85
2019-05-10T02:44:17.402Z,99451.66
2019-05-10T02:46:49.168Z,99446.41
2019-05-10T02:49:21.004Z,99448.55
2019-05-10T02:51:53.075Z,99446.03
2019-05-10T02:54:24.932Z,99451.17
2019-05-10T02:56:58.625Z,99443.17
2019-05-10T02:59:33.736Z,99443.78
2019-05-10T03:02:08.467Z,99439.86
2019-05-10T03:04:40.563Z,99446.27
2019-05-10T03:07:12.941Z,99446.76
2019-05-10T03:09:49.809Z,99443.19
2019-05-10T03:12:26.896Z,99449.75
2019-05-10T03:15:01.016Z,99450.94
2019-05-10T03:17:32.982Z,99451.31
2019-05-10T03:20:05.089Z,99448.68
2019-05-10T03:22:44.758Z,99455.01
2019-05-10T03:25:16.953Z,99457.15
2019-05-10T03:27:48.813Z,99462.64
2019-05-10T03:30:21.001Z,99463.83
2019-05-10T03:32:52.816Z,99463.73
2019-05-10T03:35:25.119Z,99464.19
2019-05-10T03:37:57.768Z,99464.44
2019-05-10T03:40:30.173Z,99461.91
2019-05-10T03:43:01.983Z,99465.52
2019-05-10T03:45:33.771Z,99470.53
2019-05-10T03:48:05.621Z,99470.05
2019-05-10T03:50:37.810Z,99473.25
2019-05-10T03:53:09.762Z,99470.88
2019-05-10T03:55:41.870Z,99477.17
2019-05-10T03:58:13.893Z,99476.23
2019-05-10T04:00:45.899Z,99475.74
2019-05-10T04:03:17.682Z,99480.39
2019-05-10T04:05:49.538Z,99474.22
2019-05-10T04:08:21.309Z,99478.88
2019-05-10T04:10:53.855Z,99479.94
2019-05-10T04:13:25.661Z,99485.08
2019-05-10T04:15:57.476Z,99480.66
2019-05-10T04:18:29.293Z,99482.31
2019-05-10T04:21:01.143Z,99482.56
2019-05-10T04:23:33.139Z,99487.58
2019-05-10T04:26:05.080Z,99482.30
2019-05-10T04:28:36.833Z,99483.47
2019-05-10T04:31:09.041Z,99488.82
2019-05-10T04:33:40.842Z,99490.29
2019-05-10T04:36:13.181Z,99489.31
2019-05-10T04:38:45.419Z,99492.45
2019-05-10T04:41:17.325Z,99493.77
2019-05-10T04:43:49.154Z,99495.86
2019-05-10T04:46:21.307Z,99487.27
2019-05-10T04:48:53.262Z,99497.05
2019-05-10T04:51:25.156Z,99494.89
2019-05-10T04:53:57.167Z,99491.28
2019-05-10T04:56:29.028Z,99494.83
2019-05-10T04:59:00.893Z,99500.66
2019-05-10T05:01:32.910Z,99498.25
2019-05-10T05:04:06.545Z,99497.02
2019-05-10T05:06:38.482Z,99494.88
2019-05-10T05:09:10.297Z,99500.39
2019-05-10T05:11:42.572Z,99506.31
2019-05-10T05:14:14.403Z,99506.52
2019-05-10T05:16:46.230Z,99506.84
2019-05-10T05:19:18.015Z,99508.48
2019-05-10T05:21:49.902Z,99510.62
2019-05-10T05:24:23.135Z,99514.40
2019-05-10T05:26:59.714Z,99512.83
2019-05-10T05:29:33.189Z,99513.16
2019-05-10T05:32:05.271Z,99511.36
2019-05-10T05:34:37.096Z,99523.44
2019-05-10T05:37:09.069Z,99524.27
2019-05-10T05:39:41.235Z,99520.64
2019-05-10T05:42:13.067Z,99521.78
2019-05-10T05:44:45.698Z,99523.57
2019-05-10T05:47:17.791Z,99530.30
2019-05-10T05:49:49.637Z,99530.96
2019-05-10T05:52:21.701Z,99530.14
2019-05-10T05:54:57.500Z,99528.52
2019-05-10T05:57:29.594Z,99535.05
2019-05-10T06:00:04.220Z,99531.72
2019-05-10T06:02:44.239Z,99536.73
2019-05-10T06:05:08.319Z,99532.63
2019-05-10T06:07:40.466Z,99534.75
2019-05-10T06:10:16.928Z,99535.11
2019-05-10T06:12:52.680Z,99532.64
2019-05-10T06:15:29.033Z,99537.59
2019-05-10T06:17:57.742Z,99538.08
2019-05-10T06:20:30.849Z,99533.38
2019-05-10T06:23:07.091Z,99537.55
2019-05-10T06:25:40.099Z,99537.66
2019-05-10T06:28:25.852Z,99535.23
2019-05-10T06:30:43.684Z,99539.04
2019-05-10T06:33:15.861Z,99529.56
2019-05-10T06:35:47.635Z,99537.75
2019-05-10T06:38:19.518Z,99538.07
2019-05-10T06:40:51.637Z,99540.61
2019-05-10T06:56:54.454Z,99540.09
2019-05-10T06:59:26.415Z,99544.47
2019-05-10T07:01:58.493Z,99548.39
2019-05-10T07:04:35.040Z,99547.65
2019-05-10T07:07:10.405Z,99558.77
2019-05-10T07:10:01.608Z,99554.79
2019-05-10T07:12:15.511Z,99560.45
2019-05-10T07:14:46.648Z,99555.38
2019-05-10T07:17:19.067Z,99562.27
2019-05-10T07:19:54.895Z,99557.41
2019-05-10T07:22:27.040Z,99561.66
2019-05-10T07:25:04.242Z,99557.63
2019-05-10T07:27:36.902Z,99562.44
2019-05-10T07:30:09.623Z,99559.66
2019-05-10T07:32:41.714Z,99556.88
2019-05-10T07:35:13.654Z,99566.54
2019-05-10T07:37:47.666Z,99563.31
2019-05-10T07:40:19.015Z,99560.16
2019-05-10T07:42:50.955Z,99556.66
2019-05-10T07:45:25.552Z,99559.80
2019-05-10T07:47:56.572Z,99561.09
2019-05-10T07:50:28.736Z,99558.34
2019-05-10T07:53:00.800Z,99559.23
2019-05-10T07:55:32.591Z,99569.54
2019-05-10T07:58:06.723Z,99574.40
2019-05-10T08:00:44.494Z,99583.89
2019-05-10T08:03:16.774Z,99588.38
2019-05-10T08:05:46.156Z,99584.83
2019-05-10T08:08:19.353Z,99584.50
2019-05-10T08:10:51.184Z,99584.43
2019-05-10T08:13:25.142Z,99590.92
2019-05-10T08:15:56.760Z,99588.14
2019-05-10T08:18:29.294Z,99589.02
2019-05-10T08:21:03.222Z,99594.30
2019-05-10T08:23:35.238Z,99594.83
2019-05-10T08:26:10.926Z,99598.86
2019-05-10T08:28:44.498Z,99597.61
2019-05-10T08:31:14.257Z,99599.64
2019-05-10T08:33:56.246Z,99599.03
2019-05-10T08:36:21.797Z,99600.39
2019-05-10T08:39:05.008Z,99603.59
2019-05-10T08:41:27.346Z,99605.66
2019-05-10T08:43:59.189Z,99610.08
2019-05-10T08:46:40.113Z,99615.25
2019-05-10T08:49:06.272Z,99614.94
2019-05-10T08:51:43.829Z,99622.66
2019-05-10T08:54:12.200Z,99619.16
2019-05-10T08:56:46.770Z,99623.11
2019-05-10T08:59:23.613Z,99634.98
2019-05-10T09:01:53.700Z,99632.98
2019-05-10T09:04:25.178Z,99632.86
2019-05-10T09:06:59.802Z,99634.36
2019-05-10T09:09:33.705Z,99637.64
2019-05-10T09:12:09.045Z,99634.41
2019-05-10T09:14:37.956Z,99644.48
2019-05-10T09:17:14.785Z,99646.38
2019-05-10T09:19:44.327Z,99644.04
2019-05-10T09:22:16.793Z,99646.90
2019-05-10T09:24:49.974Z,99645.93
2019-05-10T09:27:23.017Z,99645.24
2019-05-10T09:29:55.166Z,99647.78
2019-05-10T09:32:28.801Z,99647.72
2019-05-10T09:35:07.859Z,99651.08
2019-05-10T09:37:34.542Z,99647.87
2019-05-10T09:40:09.913Z,99649.25
2019-05-10T09:42:43.473Z,99655.49
2019-05-10T09:45:16.170Z,99646.84
2019-05-10T09:47:48.077Z,99650.84
2019-05-10T09:50:22.972Z,99654.42
2019-05-10T09:52:55.212Z,99647.65
2019-05-10T09:55:28.004Z,99652.71
2019-05-10T09:58:00.172Z,99652.71
2019-05-10T10:00:37.964Z,99662.61
2019-05-10T10:03:12.748Z,99664.63
2019-05-10T10:05:43.642Z,99670.09
2019-05-10T10:08:17.642Z,99669.10
2019-05-10T10:10:49.814Z,99674.85
2019-05-10T10:13:39.062Z,99676.39
2019-05-10T10:15:55.385Z,99678.06
2019-05-10T10:18:28.414Z,99679.36
2019-05-10T10:21:00.395Z,99676.20
2019-05-10T10:23:34.909Z,99677.73
2019-05-10T10:26:07.193Z,99684.47
2019-05-10T10:28:39.841Z,99681.95
2019-05-10T10:31:26.135Z,99684.19
2019-05-10T10:33:57.381Z,99688.13
2019-05-10T10:36:19.305Z,99690.59
2019-05-10T10:38:51.172Z,99690.06
2019-05-10T10:41:31.319Z,99697.13
2019-05-10T10:43:58.378Z,99695.25
2019-05-10T10:46:30.414Z,99700.45
2019-05-10T10:49:02.223Z,99702.27
2019-05-10T10:51:34.767Z,99704.19
2019-05-10T10:54:07.489Z,99703.91
2019-05-10T10:56:40.001Z,99704.60
2019-05-10T10:59:11.847Z,99709.25
2019-05-10T11:01:49.902Z,99712.26
2019-05-10T11:04:17.520Z,99701.19
2019-05-10T11:06:49.609Z,99708.16
2019-05-10T11:09:21.690Z,99707.65
2019-05-10T11:11:53.871Z,99709.83
2019-05-10T11:14:25.647Z,99710.75
2019-05-10T11:16:57.595Z,99714.48
2019-05-10T11:19:31.582Z,99709.08
2019-05-10T11:22:09.736Z,99710.89
2019-05-10T11:24:36.614Z,99716.58
2019-05-10T11:27:13.093Z,99719.20
2019-05-10T11:29:42.199Z,99721.67
2019-05-10T11:32:16.541Z,99721.35
2019-05-10T11:34:47.671Z,99718.45
2019-05-10T11:37:31.070Z,99724.53
2019-05-10T11:39:53.345Z,99720.52
2019-05-10T11:42:25.391Z,99723.92
2019-05-10T11:44:57.219Z,99725.86
2019-05-10T11:47:31.169Z,99727.22
2019-05-10T11:50:06.314Z,99724.23
2019-05-10T11:52:36.579Z,99721.70
2019-05-10T11:55:11.465Z,99722.70
2019-05-10T11:57:44.166Z,99721.28
2019-05-10T12:00:25.601Z,99726.17
2019-05-10T12:03:11.307Z,99722.80
2019-05-10T12:05:26.769Z,99721.15
2019-05-10T12:07:57.030Z,99725.20
2019-05-10T12:10:32.079Z,99726.03
2019-05-10T12:13:15.170Z,99726.85
2019-05-10T12:15:36.970Z,99726.95
2019-05-10T12:18:14.292Z,99730.91
2019-05-10T12:20:54.801Z,99733.00
2019-05-10T12:23:22.445Z,99735.05
2019-05-10T12:26:17.832Z,99738.99
2019-05-10T12:28:28.546Z,99736.38
2019-05-10T12:30:57.115Z,99729.59
2019-05-10T12:33:31.541Z,99729.93
2019-05-10T12:36:02.787Z,99723.25
2019-05-10T12:38:35.918Z,99733.10
2019-05-10T12:41:08.605Z,99728.27
2019-05-10T12:43:43.536Z,99730.60
2019-05-10T12:46:14.212Z,99725.95
2019-05-10T12:48:46.111Z,99733.58
2019-05-10T12:51:17.906Z,99732.77
2019-05-10T12:53:52.180Z,99735.58
2019-05-10T12:56:23.824Z,99728.59
2019-05-10T12:58:59.459Z,99734.08
2019-05-10T13:01:31.960Z,99734.42
2019-05-10T13:04:13.470Z,99736.56
2019-05-10T13:06:38.062Z,99736.55
2019-05-10T13:09:10.152Z,99741.37
2019-05-10T13:11:42.374Z,99739.17
2019-05-10T13:14:14.333Z,99744.41
2019-05-10T13:16:46.209Z,99742.91
2019-05-10T13:19:20.005Z,99737.69
2019-05-10T13:21:53.676Z,99744.14
2019-05-10T13:24:25.169Z,99732.20
2019-05-10T13:26:57.170Z,99730.65
2019-05-10T13:29:29.010Z,99730.92
2019-05-10T13:32:00.822Z,99737.36
2019-05-10T13:34:32.800Z,99736.28
2019-05-10T13:37:05.654Z,99741.97
2019-05-10T13:39:37.713Z,99733.41
2019-05-10T13:42:09.889Z,99732.39
2019-05-10T13:44:42.777Z,99735.31
2019-05-10T13:47:16.490Z,99732.80
2019-05-10T13:49:49.149Z,99733.16
2019-05-10T13:52:21.281Z,99736.05
2019-05-10T13:54:53.502Z,99731.22
2019-05-10T13:57:25.437Z,99724.64
2019-05-10T13:59:57.577Z,99735.02
2019-05-10T14:02:32.909Z,99733.07
2019-05-10T14:05:03.157Z,99729.31
2019-05-10T14:07:35.082Z,99734.85
2019-05-10T14:10:07.506Z,99738.74
2019-05-10T14:12:39.612Z,99746.22
2019-05-10T14:15:13.717Z,99742.36
2019-05-10T14:17:45.789Z,99738.23
2019-05-10T14:20:25.111Z,99732.19
2019-05-10T14:22:55.831Z,99734.19
2019-05-10T14:25:29.660Z,99735.20
2019-05-10T14:28:00.263Z,99739.38
2019-05-10T14:30:32.470Z,99735.87
2019-05-10T14:33:08.605Z,99728.12
2019-05-10T14:35:38.114Z,99731.03
2019-05-10T14:38:10.624Z,99729.80
2019-05-10T14:40:42.879Z,99725.92
2019-05-10T14:43:14.873Z,99735.20
2019-05-10T14:45:46.796Z,99737.51
2019-05-10T14:48:28.128Z,99741.44
2019-05-10T14:50:52.101Z,99742.92
2019-05-10T14:53:25.466Z,99741.37
2019-05-10T14:55:57.398Z,99746.63
2019-05-10T14:58:29.487Z,99750.66
2019-05-10T15:01:01.456Z,99748.20
2019-05-10T15:03:35.293Z,99744.98
2019-05-10T15:06:07.035Z,99755.23
2019-05-10T15:08:39.321Z,99741.87
2019-05-10T15:11:11.116Z,99750.41
2019-05-10T15:13:42.925Z,99751.18
2019-05-10T15:16:25.754Z,99750.25
2019-05-10T15:18:49.851Z,99748.63
2019-05-10T15:21:21.954Z,99746.73
2019-05-10T15:23:55.406Z,99752.47
2019-05-10T15:26:27.531Z,99757.13
2019-05-10T15:28:59.594Z,99757.80
2019-05-10T15:31:31.431Z,99755.84
2019-05-10T15:34:05.120Z,99756.59
2019-05-10T15:36:36.961Z,99755.63
2019-05-10T15:39:09.259Z,99761.78
2019-05-10T15:41:41.254Z,99761.03
2019-05-10T15:44:13.308Z,99765.34
2019-05-10T15:46:45.286Z,99771.41
2019-05-10T15:49:22.634Z,99771.72
2019-05-10T15:51:56.823Z,99762.97
2019-05-10T15:54:24.047Z,99770.08
2019-05-10T15:56:56.075Z,99771.71
2019-05-10T15:59:28.236Z,99770.77
2019-05-10T16:02:00.062Z,99768.59
2019-05-10T16:04:31.915Z,99763.86
2019-05-10T16:07:03.833Z,99768.59
2019-05-10T16:09:35.653Z,99771.94
2019-05-10T16:12:08.740Z,99770.84
2019-05-10T16:14:44.974Z,99766.55
2019-05-10T16:17:17.030Z,99773.77
2019-05-10T16:19:50.405Z,99773.12
2019-05-10T16:22:25.243Z,99774.93
2019-05-10T16:25:00.521Z,99777.44
2019-05-10T16:27:34.088Z,99785.02
2019-05-10T16:30:02.847Z,99789.31
2019-05-10T16:32:36.306Z,99787.48
2019-05-10T16:35:12.654Z,99791.52
2019-05-10T16:37:42.682Z,99789.78
2019-05-10T16:40:15.224Z,99793.11
2019-05-10T16:42:47.082Z,99792.72
2019-05-10T16:45:19.655Z,99792.34
2019-05-10T16:47:51.461Z,99793.48
2019-05-10T16:50:26.061Z,99795.66
2019-05-10T16:52:59.370Z,99800.10
2019-05-10T16:55:30.518Z,99799.26
2019-05-10T16:58:03.502Z,99800.73
2019-05-10T17:00:40.654Z,99799.78
2019-05-10T17:03:13.164Z,99802.73
2019-05-10T17:05:53.016Z,99814.87
2019-05-10T17:08:17.532Z,99813.30
2019-05-10T17:10:49.419Z,99816.02
2019-05-10T17:13:21.400Z,99814.91
2019-05-10T17:15:53.536Z,99816.70
2019-05-10T17:18:25.668Z,99826.69
2019-05-10T17:20:57.471Z,99833.66
2019-05-10T17:23:29.522Z,99830.98
2019-05-10T17:26:01.363Z,99832.61
2019-05-10T17:28:35.246Z,99826.37
2019-05-10T17:31:08.177Z,99829.98
2019-05-10T17:33:42.552Z,99836.73
2019-05-10T17:36:19.847Z,99831.31
2019-05-10T17:38:53.582Z,99836.08
2019-05-10T17:41:24.613Z,99841.01
2019-05-10T17:43:55.899Z,99841.30
2019-05-10T17:46:27.998Z,99840.72
2019-05-10T17:49:00.017Z,99836.00
2019-05-10T17:51:31.855Z,99847.95
2019-05-10T17:54:03.862Z,99849.41
2019-05-10T17:56:38.746Z,99847.85
2019-05-10T17:59:11.976Z,99850.91
2019-05-10T18:01:43.441Z,99860.39
2019-05-10T18:04:15.793Z,99862.58
2019-05-10T18:06:47.571Z,99862.95
2019-05-10T18:09:19.441Z,99864.97
2019-05-10T18:11:51.373Z,99867.48
2019-05-10T18:14:23.531Z,99870.81
2019-05-10T18:16:55.593Z,99870.28
2019-05-10T18:19:27.558Z,99868.94
2019-05-10T18:22:05.531Z,99876.36
2019-05-10T18:24:36.279Z,99867.97
2019-05-10T18:27:06.868Z,99876.75
2019-05-10T18:29:38.820Z,99876.48
2019-05-10T18:32:11.282Z,99878.03
2019-05-10T18:34:43.316Z,99875.39
2019-05-10T18:37:15.805Z,99879.85
2019-05-10T18:39:52.993Z,99884.73
2019-05-10T18:42:25.225Z,99890.17
2019-05-10T18:44:55.971Z,99891.23
2019-05-10T18:47:28.656Z,99890.05
2019-05-10T18:50:00.709Z,99894.81
2019-05-10T18:52:32.655Z,99899.81
2019-05-10T18:55:05.196Z,99899.31
2019-05-10T18:57:37.191Z,99906.25
2019-05-10T19:00:10.313Z,99901.42
2019-05-10T19:02:42.183Z,99899.73
2019-05-10T19:05:14.713Z,99903.15
2019-05-10T19:07:46.703Z,99900.70
2019-05-10T19:10:18.772Z,99901.08
2019-05-10T19:12:59.924Z,99902.82
2019-05-10T19:15:25.595Z,99897.92
2019-05-10T19:17:57.684Z,99907.67
2019-05-10T19:20:29.868Z,99904.26
2019-05-10T19:23:05.188Z,99907.64
2019-05-10T19:25:37.644Z,99916.28
2019-05-10T19:28:09.532Z,99912.46
2019-05-10T19:30:41.809Z,99911.11
2019-05-10T19:33:15.047Z,99910.53
2019-05-10T19:35:47.360Z,99921.01
2019-05-10T19:38:19.293Z,99917.21
2019-05-10T19:40:51.559Z,99916.05
2019-05-10T19:43:24.304Z,99916.09
2019-05-10T19:45:57.558Z,99923.75
2019-05-10T19:48:35.457Z,99923.54
2019-05-10T19:51:09.622Z,99925.72
2019-05-10T19:53:42.450Z,99923.69
2019-05-10T19:56:10.808Z,99930.55
2019-05-10T19:58:42.607Z,99935.72
2019-05-10T20:01:14.742Z,99934.78
2019-05-10T20:03:46.645Z,99940.78
2019-05-10T20:06:18.594Z,99938.14
2019-05-10T20:08:50.676Z,99938.63
2019-05-10T20:11:22.772Z,99941.61
2019-05-10T20:13:54.628Z,99939.24
2019-05-10T20:16:26.484Z,99937.91
2019-05-10T20:18:58.497Z,99938.88
2019-05-10T20:21:33.121Z,99937.45
2019-05-10T20:24:05.066Z,99943.56
2019-05-10T20:26:37.366Z,99943.34
2019-05-10T20:29:09.329Z,99934.25
2019-05-10T20:31:41.291Z,99944.78
2019-05-10T20:34:13.291Z,99942.73
2019-05-10T20:36:45.324Z,99940.44
2019-05-10T20:39:17.271Z,99945.25
2019-05-10T20:41:49.585Z,99942.25
2019-05-10T20:44:21.960Z,99940.34
2019-05-10T20:46:54.136Z,99947.53
2019-05-10T20:49:26.136Z,99943.44
2019-05-10T20:51:58.222Z,99956.02
2019-05-10T20:54:30.365Z,99960.31
2019-05-10T20:57:03.020Z,99956.81
2019-05-10T20:59:35.048Z,99955.67
2019-05-10T21:02:07.002Z,99961.77
2019-05-10T21:04:38.952Z,99960.45
2019-05-10T21:07:11.057Z,99969.04
2019-05-10T21:09:42.868Z,99970.81
2019-05-10T21:12:16.172Z,99966.41
2019-05-10T21:14:47.970Z,99962.47
2019-05-10T21:17:20.031Z,99966.87
2019-05-10T21:19:51.803Z,99965.78
2019-05-10T21:22:23.953Z,99970.94
2019-05-10T21:24:55.791Z,99981.81
2019-05-10T21:27:28.315Z,99975.83
2019-05-10T21:30:00.222Z,99977.48
2019-05-10T21:32:32.752Z,99978.09
2019-05-10T21:35:05.327Z,99973.40
2019-05-10T21:37:37.345Z,99972.30
2019-05-10T21:40:09.893Z,99968.73
2019-05-10T21:42:42.117Z,99972.30
2019-05-10T21:45:14.478Z,99962.48
2019-05-10T21:47:51.613Z,99971.19
2019-05-10T21:50:19.926Z,99968.41
2019-05-10T21:52:51.923Z,99974.86
2019-05-10T21:55:23.695Z,99974.59
2019-05-10T21:57:55.921Z,99974.92
2019-05-10T22:00:31.295Z,99966.91
2019-05-10T22:03:04.444Z,99971.45
2019-05-10T22:05:36.266Z,99964.38
2019-05-10T22:08:08.338Z,99973.69
2019-05-10T22:10:40.386Z,99969.75
2019-05-10T22:13:14.287Z,99966.86
2019-05-10T22:15:46.158Z,99975.50
2019-05-10T22:18:17.958Z,99974.42
2019-05-10T22:20:49.764Z,99970.37
2019-05-10T22:23:21.750Z,99970.86
2019-05-10T22:25:53.573Z,99966.70
2019-05-10T22:28:25.550Z,99974.71
2019-05-10T22:30:57.415Z,99972.34
2019-05-10T22:33:29.499Z,99970.44
2019-05-10T22:36:01.327Z,99970.66
2019-05-10T22:38:33.135Z,99966.50
2019-05-10T22:41:04.919Z,99964.36
2019-05-10T22:43:37.441Z,99962.71
2019-05-10T22:46:09.343Z,99966.55
2019-05-10T22:48:41.237Z,99960.45
2019-05-10T22:51:13.166Z,99957.34
2019-05-10T22:53:58.595Z,99958.53
2019-05-10T22:56:18.975Z,99951.69
2019-05-10T22:58:51.220Z,99962.55
2019-05-10T23:01:23.056Z,99964.02
2019-05-10T23:03:54.955Z,99963.05
2019-05-10T23:06:26.813Z,99959.97
2019-05-10T23:08:58.686Z,99963.09
2019-05-10T23:11:30.489Z,99964.56
2019-05-10T23:14:02.847Z,99958.36
2019-05-10T23:16:34.737Z,99957.27
2019-05-10T23:19:06.542Z,99950.34
2019-05-10T23:21:38.324Z,99952.97
2019-05-10T23:24:13.735Z,99953.72
2019-05-10T23:26:45.877Z,99951.56
2019-05-10T23:29:18.321Z,99952.28
2019-05-10T23:31:50.139Z,99949.88
2019-05-10T23:34:22.271Z,99948.09
2019-05-10T23:36:54.170Z,99949.55
2019-05-10T23:39:39.745Z,99954.83
2019-05-10T23:42:00.362Z,99953.25
2019-05-10T23:44:32.217Z,99956.61
2019-05-10T23:47:04.069Z,99954.09
2019-05-10T23:49:36.187Z,99956.37
2019-05-10T23:52:08.040Z,99956.48
2019-05-10T23:54:39.960Z,99953.27
2019-05-10T23:57:11.726Z,99956.94
2019-05-10T23:59:43.723Z,99958.62
